This is the latest recevied weather packets stored in our database for station/object IK1PCD-11. If no packets are shown the sender has not sent any weather packets the latest 10 day(s).
| Time | Temp. | Humidity | Pressure | Rain* | Wind** | Luminosity | Snow |
|---|---|---|---|---|---|---|---|
| 1777832883 | 10° C | 71% | 1017.2 hPa | - | - | - | - |
| 1777831991 | 11.11° C | 68% | 1017.4 hPa | - | - | - | - |
| 1777831091 | 11.67° C | 66% | 1017.4 hPa | - | - | - | - |
| 1777830191 | 12.22° C | 62% | 1017.4 hPa | - | - | - | - |
| 1777829291 | 12.78° C | 59% | 1017.5 hPa | - | - | - | - |
| 1777828391 | 13.89° C | 56% | 1017.5 hPa | - | - | - | - |
| 1777827491 | 13.89° C | 56% | 1017.5 hPa | - | - | - | - |
| 1777826591 | 13.89° C | 52% | 1017.5 hPa | - | - | - | - |
| 1777823891 | 15.56° C | 48% | 1017.7 hPa | - | - | - | - |
| 1777822991 | 16.11° C | 47% | 1017.6 hPa | - | - | - | - |
| 1777822090 | 16.11° C | 49% | 1017.9 hPa | - | - | - | - |
| 1777821190 | 15.56° C | 48% | 1018 hPa | - | - | - | - |
| 1777820289 | 15.56° C | 49% | 1018.1 hPa | - | - | - | - |
| 1777819388 | 16.11° C | 52% | 1018.1 hPa | - | - | - | - |
| 1777818488 | 15.56° C | 51% | 1018.3 hPa | - | - | - | - |
| 1777817588 | 16.11° C | 48% | 1018.4 hPa | - | - | - | - |
| 1777816684 | 15° C | 50% | 1018.7 hPa | - | - | - | - |
| 1777815783 | 15.56° C | 48% | 1018.8 hPa | - | - | - | - |
| 1777814883 | 16.11° C | 46% | 1019 hPa | - | - | - | - |
| 1777813983 | 15.56° C | 48% | 1019.1 hPa | - | - | - | - |
| 1777813083 | 14.44° C | 49% | 1019.3 hPa | - | - | - | - |
| 1777812183 | 13.89° C | 49% | 1019.5 hPa | - | - | - | - |
| 1777811283 | 15° C | 48% | 1019.5 hPa | - | - | - | - |
| 1777809261 | 17.22° C | 47% | 1019.5 hPa | - | - | - | - |
| 1777808361 | 16.67° C | 46% | 1019.3 hPa | - | - | - | - |
* Rain since midnight (hover to see other rain measurements)
** Current wind speed in m/s (hover to see current wind gust speed)